Time;durP1;ratioP1;P1;durP2;ratioP2;P2;SDS_P1;SDS_P2;PMS_P1;PMS_P2;Temp;Humidity;BMP_temperature;BMP_pressure;BME280_temperature;BME280_humidity;BME280_pressure;Samples;Min_cycle;Max_cycle;Signal;HPM_P1;HPM_P2
2023/12/23 00:01:05;;;;;;;7.10;1.85;;;;;;;18.96;65.08;101007.66;4997847;28;20044;-37
2023/12/23 00:03:31;;;;;;;6.43;1.75;;;;;;;18.96;65.07;100998.59;5000792;28;20053;-37
2023/12/23 00:05:56;;;;;;;5.35;1.75;;;;;;;18.96;65.03;101001.34;5007966;28;20439;-36
2023/12/23 00:08:22;;;;;;;9.80;2.10;;;;;;;18.94;65.26;101009.84;5001475;28;20037;-38
2023/12/23 00:10:47;;;;;;;4.63;1.67;;;;;;;18.93;65.27;101005.47;4999597;28;20021;-38
2023/12/23 00:13:13;;;;;;;6.40;1.92;;;;;;;18.93;65.18;101005.47;4983141;28;20479;-37
2023/12/23 00:15:38;;;;;;;5.00;2.13;;;;;;;18.92;67.07;101003.84;4999193;28;20033;-38
2023/12/23 00:18:04;;;;;;;8.95;2.40;;;;;;;18.93;68.57;101013.69;5004478;28;20030;-37
2023/12/23 00:20:29;;;;;;;4.82;1.92;;;;;;;18.94;69.54;101011.78;5003343;28;20053;-38
2023/12/23 00:22:55;;;;;;;5.43;1.83;;;;;;;18.94;70.47;100998.06;5006875;28;20064;-37
2023/12/23 00:25:21;;;;;;;5.85;1.92;;;;;;;18.94;70.68;100990.63;5001915;28;20053;-37
2023/12/23 00:27:46;;;;;;;7.88;2.00;;;;;;;18.96;71.06;100999.44;4987895;28;20057;-37
2023/12/23 00:30:13;;;;;;;6.95;2.20;;;;;;;18.96;71.12;100985.69;4987146;28;20034;-38
2023/12/23 00:32:40;;;;;;;4.53;2.00;;;;;;;18.95;71.54;100977.75;4983714;28;20342;-38
2023/12/23 00:35:07;;;;;;;5.38;1.95;;;;;;;18.96;71.24;100974.72;4989572;28;20374;-38
2023/12/23 00:37:32;;;;;;;5.47;2.17;;;;;;;18.95;71.85;100975.81;4984467;28;20026;-38
2023/12/23 00:39:58;;;;;;;6.25;2.10;;;;;;;18.95;71.92;100967.56;4983710;28;20032;-37
2023/12/23 00:42:23;;;;;;;6.28;2.20;;;;;;;18.95;72.37;100975.81;4988370;28;20097;-38
2023/12/23 00:44:48;;;;;;;5.47;1.92;;;;;;;18.96;72.32;100973.88;4991834;28;20030;-38
2023/12/23 00:47:14;;;;;;;6.90;2.05;;;;;;;18.96;72.37;100962.88;5006049;28;20120;-37
2023/12/23 00:49:40;;;;;;;5.75;2.25;;;;;;;18.95;72.43;100966.75;4983937;28;20380;-37
2023/12/23 00:52:05;;;;;;;6.18;1.98;;;;;;;18.94;72.52;100957.69;4988642;28;20132;-37
2023/12/23 00:54:31;;;;;;;6.53;2.10;;;;;;;18.95;72.95;100953.03;4989408;28;20030;-36
2023/12/23 00:56:57;;;;;;;6.60;2.10;;;;;;;18.95;73.11;100961.25;4997621;28;20432;-38
2023/12/23 00:59:22;;;;;;;9.60;2.70;;;;;;;18.95;73.29;100953.84;4989282;28;20153;-39
2023/12/23 01:01:47;;;;;;;5.40;2.00;;;;;;;18.95;73.45;100953.03;4993980;28;20025;-37
2023/12/23 01:04:13;;;;;;;8.57;2.58;;;;;;;18.93;73.28;100942.28;4991446;28;20111;-37
2023/12/23 01:06:38;;;;;;;5.93;2.20;;;;;;;18.93;73.14;100942.28;4992198;28;20022;-36
2023/12/23 01:09:04;;;;;;;7.10;2.35;;;;;;;18.94;72.71;100951.38;4992119;28;20469;-38
2023/12/23 01:11:29;;;;;;;6.80;2.38;;;;;;;18.92;72.60;100957.97;4990819;28;20061;-38
2023/12/23 01:13:55;;;;;;;7.28;2.28;;;;;;;18.92;71.97;100948.91;4988693;28;20038;-37
2023/12/23 01:16:20;;;;;;;6.97;1.95;;;;;;;18.90;72.06;100954.63;4991115;28;20571;-38
2023/12/23 01:18:46;;;;;;;5.85;2.22;;;;;;;18.88;72.21;100959.59;4984569;28;20049;-38
2023/12/23 01:21:11;;;;;;;8.00;2.00;;;;;;;18.89;71.85;100955.72;4997383;28;20021;-37
2023/12/23 01:23:36;;;;;;;15.93;2.53;;;;;;;18.85;71.60;100949.16;4988568;28;20101;-38
2023/12/23 01:26:02;;;;;;;9.95;2.22;;;;;;;18.85;71.53;100940.94;4989704;28;20125;-37
2023/12/23 01:28:27;;;;;;;7.15;2.08;;;;;;;18.83;71.48;100954.09;4991725;28;20124;-38
2023/12/23 01:30:53;;;;;;;5.78;2.53;;;;;;;18.83;71.20;100934.06;4993145;28;20033;-37
2023/12/23 01:33:18;;;;;;;6.47;2.10;;;;;;;18.81;71.02;100933.53;4969755;28;21052;-39
2023/12/23 01:35:43;;;;;;;7.18;2.25;;;;;;;18.80;70.98;100934.63;4993861;28;20093;-37
2023/12/23 01:38:09;;;;;;;6.93;2.00;;;;;;;18.81;71.00;100936.28;4991162;28;20037;-37
2023/12/23 01:40:35;;;;;;;5.15;2.08;;;;;;;18.79;70.81;100933.81;4991253;28;20462;-38
2023/12/23 01:43:00;;;;;;;5.97;1.95;;;;;;;18.79;70.62;100913.78;4993347;28;20038;-38
2023/12/23 01:45:26;;;;;;;5.93;2.00;;;;;;;18.78;70.53;100915.69;4993701;28;20025;-37
2023/12/23 01:47:52;;;;;;;7.35;1.60;;;;;;;18.76;70.36;100910.47;4994355;28;20034;-36
2023/12/23 01:50:21;;;;;;;6.50;1.88;;;;;;;18.75;70.45;100928.06;4990939;28;20414;-37
2023/12/23 01:52:48;;;;;;;5.47;1.95;;;;;;;18.75;70.73;100930.00;4992347;28;20458;-37
2023/12/23 01:55:13;;;;;;;6.60;2.00;;;;;;;18.73;70.45;100943.16;4978018;28;20037;-37
2023/12/23 01:57:39;;;;;;;4.90;1.85;;;;;;;18.74;70.45;100931.09;4986608;28;20030;-37
2023/12/23 02:00:05;;;;;;;5.90;1.85;;;;;;;18.72;70.39;100925.88;4964860;28;20022;-37
2023/12/23 02:02:31;;;;;;;5.53;2.00;;;;;;;18.72;70.34;100930.53;4973076;28;20029;-37
2023/12/23 02:04:56;;;;;;;5.53;1.92;;;;;;;18.71;70.50;100924.25;4982643;28;20057;-38
2023/12/23 02:07:21;;;;;;;6.80;1.98;;;;;;;18.70;70.49;100911.59;4989368;28;20414;-38
2023/12/23 02:09:47;;;;;;;4.85;1.70;;;;;;;18.70;70.16;100903.38;4986922;28;20085;-38
2023/12/23 02:12:24;;;;;;;5.40;1.83;;;;;;;18.71;70.20;100912.41;4986532;28;20036;-38
2023/12/23 02:14:52;;;;;;;6.43;1.80;;;;;;;18.71;70.22;100909.66;4974529;28;20034;-38
2023/12/23 02:17:18;;;;;;;4.10;1.77;;;;;;;18.70;69.97;100908.88;4997206;28;20022;-38
2023/12/23 02:19:43;;;;;;;6.00;1.95;;;;;;;18.70;70.13;100903.38;4987170;28;20125;-38
2023/12/23 02:22:09;;;;;;;6.18;2.10;;;;;;;18.69;69.91;100881.69;4989444;28;20069;-38
2023/12/23 02:24:34;;;;;;;6.72;2.17;;;;;;;18.68;70.16;100886.34;4986397;28;20186;-38
2023/12/23 02:27:04;;;;;;;9.00;2.03;;;;;;;18.67;70.09;100881.16;5013422;28;20128;-38
2023/12/23 02:29:29;;;;;;;6.07;2.47;;;;;;;18.67;69.75;100872.91;4992825;28;20432;-37
2023/12/23 02:31:56;;;;;;;6.68;2.25;;;;;;;18.66;69.83;100868.53;4992931;28;20044;-37
2023/12/23 02:34:22;;;;;;;4.75;1.83;;;;;;;18.64;70.05;100870.72;5000646;28;20045;-38
2023/12/23 02:36:47;;;;;;;8.02;2.55;;;;;;;18.62;69.81;100871.00;4990920;28;20061;-39
2023/12/23 02:39:12;;;;;;;5.50;2.40;;;;;;;18.60;69.85;100865.81;5003731;28;20036;-37
2023/12/23 02:41:38;;;;;;;6.32;2.33;;;;;;;18.60;70.14;100876.78;5000590;28;20030;-37
2023/12/23 02:44:03;;;;;;;6.15;2.20;;;;;;;18.61;69.88;100874.84;5001053;28;20242;-37
2023/12/23 02:46:29;;;;;;;7.60;2.03;;;;;;;18.59;69.94;100880.63;4983282;28;20030;-37
2023/12/23 02:48:54;;;;;;;6.05;2.10;;;;;;;18.58;69.97;100878.16;5007410;28;20022;-40
2023/12/23 02:51:19;;;;;;;5.28;2.20;;;;;;;18.58;70.12;100862.50;5002185;28;20832;-36
2023/12/23 02:53:45;;;;;;;7.82;2.10;;;;;;;18.58;69.95;100878.16;4999635;28;20033;-37
2023/12/23 02:56:10;;;;;;;4.47;2.10;;;;;;;18.56;70.10;100870.19;4977363;28;20609;-37
2023/12/23 02:58:35;;;;;;;7.18;2.17;;;;;;;18.58;69.85;100869.94;4998248;28;20038;-37
2023/12/23 03:01:07;;;;;;;6.15;2.22;;;;;;;18.57;69.88;100866.34;5011141;28;20372;-38
2023/12/23 03:03:32;;;;;;;6.10;2.15;;;;;;;18.56;69.88;100867.44;5006436;28;20121;-38
2023/12/23 03:05:57;;;;;;;5.95;2.17;;;;;;;18.56;70.02;100861.16;5007615;28;20128;-40
2023/12/23 03:08:23;;;;;;;6.57;2.30;;;;;;;18.57;70.07;100862.78;4990548;28;20061;-39
2023/12/23 03:10:48;;;;;;;8.35;2.03;;;;;;;18.57;69.98;100860.03;4997280;28;20072;-39
2023/12/23 03:13:13;;;;;;;9.75;2.83;;;;;;;18.56;70.13;100864.69;5010688;28;20116;-38
2023/12/23 03:15:39;;;;;;;7.38;2.25;;;;;;;18.56;70.09;100866.63;5005217;28;20346;-38
2023/12/23 03:18:04;;;;;;;6.15;1.92;;;;;;;18.55;69.98;100851.25;5009168;28;20491;-37
2023/12/23 03:20:30;;;;;;;7.78;2.08;;;;;;;18.54;69.91;100866.09;5006682;28;20124;-36
2023/12/23 03:22:56;;;;;;;8.48;2.20;;;;;;;18.54;69.76;100863.34;5007085;28;20439;-38
2023/12/23 03:25:21;;;;;;;6.47;2.10;;;;;;;18.54;70.08;100853.19;5008732;28;20927;-38
2023/12/23 03:27:46;;;;;;;8.82;2.33;;;;;;;18.54;69.71;100863.34;5007529;28;20172;-37
2023/12/23 03:30:12;;;;;;;8.10;2.38;;;;;;;18.54;70.06;100855.09;5017697;28;20029;-39
2023/12/23 03:32:37;;;;;;;7.85;2.53;;;;;;;18.53;69.91;100843.31;5005520;28;20038;-37
2023/12/23 03:35:04;;;;;;;5.90;1.95;;;;;;;18.54;69.72;100836.72;5004720;28;20041;-37
2023/12/23 03:37:29;;;;;;;5.75;1.98;;;;;;;18.54;69.84;100841.38;5009396;28;20033;-38
2023/12/23 03:39:54;;;;;;;7.70;2.08;;;;;;;18.53;69.91;100837.03;5010371;28;20107;-39
2023/12/23 03:42:20;;;;;;;4.88;1.98;;;;;;;18.54;69.71;100849.63;5000912;28;20025;-37
2023/12/23 03:44:45;;;;;;;6.63;2.35;;;;;;;18.53;69.87;100861.72;5000961;28;20033;-37
2023/12/23 03:47:11;;;;;;;7.10;2.50;;;;;;;18.53;69.87;100839.75;5006869;28;20061;-36
2023/12/23 03:49:37;;;;;;;10.75;2.28;;;;;;;18.53;69.20;100853.47;4985281;28;20108;-38
2023/12/23 03:52:02;;;;;;;10.07;2.42;;;;;;;18.49;69.92;100820.28;4999870;28;20033;-37
2023/12/23 03:54:27;;;;;;;6.72;2.42;;;;;;;18.52;69.94;100810.66;5005631;28;20160;-37
2023/12/23 03:56:53;;;;;;;7.63;2.42;;;;;;;18.52;69.89;100816.16;5003499;28;20140;-37
2023/12/23 03:59:18;;;;;;;9.25;2.58;;;;;;;18.52;69.84;100813.41;5004024;28;20534;-37
2023/12/23 04:01:44;;;;;;;5.88;2.35;;;;;;;18.52;69.86;100821.66;4999454;28;20554;-37
2023/12/23 04:04:09;;;;;;;7.07;2.53;;;;;;;18.52;69.86;100827.13;4979413;28;20034;-38
2023/12/23 04:06:34;;;;;;;9.52;2.50;;;;;;;18.52;69.46;100816.97;5005377;28;20037;-38
2023/12/23 04:09:00;;;;;;;7.10;2.35;;;;;;;18.52;69.58;100806.00;5008546;28;20094;-38
2023/12/23 04:11:25;;;;;;;7.45;2.38;;;;;;;18.53;69.25;100806.81;5004135;28;20026;-37
2023/12/23 04:13:50;;;;;;;7.25;2.30;;;;;;;18.50;69.55;100816.41;5011041;28;20032;-37
2023/12/23 04:16:16;;;;;;;7.55;2.60;;;;;;;18.51;69.44;100809.03;5005344;28;20480;-38
2023/12/23 04:18:41;;;;;;;11.55;2.53;;;;;;;18.50;69.26;100779.94;5008542;28;20032;-37
2023/12/23 04:21:09;;;;;;;8.02;2.35;;;;;;;18.50;69.69;100801.88;5003779;28;20056;-37
2023/12/23 04:23:35;;;;;;;8.55;2.25;;;;;;;18.49;69.64;100803.81;5008379;28;20029;-37
2023/12/23 04:26:01;;;;;;;8.07;2.38;;;;;;;18.49;69.61;100783.78;5005892;28;20033;-37
2023/12/23 04:28:26;;;;;;;8.80;2.45;;;;;;;18.50;69.14;100799.94;4985557;28;20458;-38
2023/12/23 04:30:54;;;;;;;6.50;2.30;;;;;;;18.49;69.60;100792.00;5004089;28;20033;-39
2023/12/23 04:33:21;;;;;;;7.28;2.67;;;;;;;18.49;69.58;100792.84;4985007;28;20049;-37
2023/12/23 04:35:46;;;;;;;9.77;2.40;;;;;;;18.49;69.50;100795.59;5002733;28;20033;-37
2023/12/23 04:38:13;;;;;;;7.55;2.22;;;;;;;18.48;69.38;100782.97;4986609;28;20041;-37
2023/12/23 04:40:38;;;;;;;6.30;2.38;;;;;;;18.49;69.42;100795.59;4999681;28;20030;-37
2023/12/23 04:43:04;;;;;;;9.07;2.58;;;;;;;18.47;69.54;100795.03;5004283;28;20517;-36
2023/12/23 04:45:30;;;;;;;10.75;2.75;;;;;;;18.48;69.20;100791.19;4999900;28;20124;-37
2023/12/23 04:47:56;;;;;;;7.10;2.53;;;;;;;18.46;69.60;100774.19;5002834;28;20041;-37
2023/12/23 04:50:21;;;;;;;11.35;2.47;;;;;;;18.46;69.47;100792.59;5000417;28;20022;-37
2023/12/23 04:52:46;;;;;;;9.75;2.40;;;;;;;18.45;69.43;100802.72;5002058;28;20165;-37
2023/12/23 04:55:12;;;;;;;5.38;2.30;;;;;;;18.46;69.25;100804.38;5004428;28;20026;-38
2023/12/23 04:57:38;;;;;;;7.78;2.60;;;;;;;18.45;69.28;100780.78;5009396;28;20464;-37
2023/12/23 05:00:05;;;;;;;9.20;2.60;;;;;;;18.44;69.37;100804.66;5004543;28;20026;-38
2023/12/23 05:02:34;;;;;;;8.75;2.35;;;;;;;18.45;69.46;100797.22;5000550;28;20026;-38
2023/12/23 05:04:59;;;;;;;7.30;2.10;;;;;;;18.44;69.31;100804.66;5002672;28;20490;-38
2023/12/23 05:07:25;;;;;;;9.45;2.65;;;;;;;18.42;69.36;100782.16;5003089;28;20121;-36
2023/12/23 05:09:50;;;;;;;6.50;2.30;;;;;;;18.43;69.43;100791.22;4989778;28;20048;-38
2023/12/23 05:12:15;;;;;;;8.23;2.58;;;;;;;18.41;69.42;100782.44;5004860;28;20032;-36
2023/12/23 05:14:41;;;;;;;5.50;2.03;;;;;;;18.41;69.57;100796.97;5005456;28;20485;-38
2023/12/23 05:17:07;;;;;;;10.88;2.63;;;;;;;18.40;69.43;100792.59;5000803;28;20382;-36
2023/12/23 05:19:33;;;;;;;9.07;2.75;;;;;;;18.41;69.53;100791.47;4999771;28;20026;-35
2023/12/23 05:21:59;;;;;;;8.98;2.75;;;;;;;18.40;69.43;100789.84;5004200;28;20105;-37
2023/12/23 05:24:24;;;;;;;10.15;2.83;;;;;;;18.39;69.64;100787.38;5006835;28;21289;-38
2023/12/23 05:26:50;;;;;;;10.05;2.75;;;;;;;18.40;69.59;100789.03;4994064;28;20069;-36
2023/12/23 05:29:15;;;;;;;7.90;2.50;;;;;;;18.38;69.40;100792.06;4976047;28;20695;-36
2023/12/23 05:31:42;;;;;;;8.02;2.30;;;;;;;18.39;69.71;100792.88;4983067;28;20435;-37
2023/12/23 05:34:07;;;;;;;10.18;2.72;;;;;;;18.39;69.27;100799.19;4981371;28;20225;-37
2023/12/23 05:36:33;;;;;;;7.85;2.10;;;;;;;18.40;69.44;100794.53;4983841;28;20380;-38
2023/12/23 05:38:59;;;;;;;8.93;2.40;;;;;;;18.40;69.33;100780.78;4981929;28;20034;-38
2023/12/23 05:41:25;;;;;;;6.45;2.38;;;;;;;18.39;69.31;100774.50;4979996;28;20590;-37
2023/12/23 05:43:50;;;;;;;7.97;2.17;;;;;;;18.41;69.51;100793.41;4983009;28;20112;-38
2023/12/23 05:46:15;;;;;;;6.88;2.67;;;;;;;18.42;69.58;100765.69;4983152;28;20801;-37
2023/12/23 05:48:41;;;;;;;8.15;2.50;;;;;;;18.46;69.41;100779.66;4982609;28;20065;-38
2023/12/23 05:51:10;;;;;;;7.78;2.30;;;;;;;18.50;69.55;100777.19;4983885;28;20109;-37
2023/12/23 05:53:36;;;;;;;5.80;2.22;;;;;;;18.55;69.43;100775.25;4964664;28;20029;-38
2023/12/23 05:56:06;;;;;;;6.35;2.30;;;;;;;18.61;69.31;100762.31;4981097;28;20031;-38
2023/12/23 05:58:32;;;;;;;7.38;2.40;;;;;;;18.66;69.17;100764.22;4982791;28;20031;-37
2023/12/23 06:00:58;;;;;;;7.22;2.35;;;;;;;18.75;69.13;100768.00;4962099;28;20022;-36
2023/12/23 06:03:23;;;;;;;8.80;2.42;;;;;;;18.82;69.11;100793.22;4983131;28;20037;-38
2023/12/23 06:05:49;;;;;;;8.43;2.42;;;;;;;18.91;69.09;100775.06;4980367;28;20038;-38
2023/12/23 06:08:14;;;;;;;6.30;2.10;;;;;;;19.01;68.80;100778.84;4980591;28;20015;-37
2023/12/23 06:10:40;;;;;;;9.60;2.63;;;;;;;19.11;68.58;100776.03;4974638;28;20042;-36
2023/12/23 06:13:06;;;;;;;8.27;2.53;;;;;;;19.19;68.69;100761.69;4982710;28;20096;-37
2023/12/23 06:15:31;;;;;;;8.13;2.85;;;;;;;19.29;68.31;100785.53;4982352;28;20026;-38
2023/12/23 06:17:57;;;;;;;8.35;2.45;;;;;;;19.38;68.36;100786.53;4982957;28;20030;-37
2023/12/23 06:20:22;;;;;;;6.53;2.50;;;;;;;19.49;68.27;100772.72;4982116;28;20033;-38
2023/12/23 06:22:48;;;;;;;7.05;2.63;;;;;;;19.55;67.48;100777.88;4980709;28;20060;-37
2023/12/23 06:25:13;;;;;;;6.90;2.42;;;;;;;19.65;67.99;100776.16;4962995;28;20029;-38
2023/12/23 06:27:38;;;;;;;10.70;2.70;;;;;;;19.72;67.90;100774.69;4983053;28;20046;-38
2023/12/23 06:30:04;;;;;;;10.48;2.80;;;;;;;19.79;67.54;100752.34;5004081;28;20069;-38
2023/12/23 06:32:30;;;;;;;6.10;2.55;;;;;;;19.87;67.45;100764.69;4999355;28;20037;-38
2023/12/23 06:34:55;;;;;;;6.70;2.55;;;;;;;19.93;67.40;100751.69;5000744;28;20740;-38
2023/12/23 06:37:20;;;;;;;8.90;2.75;;;;;;;20.00;67.15;100757.66;5000016;28;20052;-38
2023/12/23 06:39:46;;;;;;;6.70;2.53;;;;;;;20.08;67.36;100753.44;5000394;28;20030;-38
2023/12/23 06:42:11;;;;;;;7.50;2.58;;;;;;;20.14;67.18;100761.34;4999616;28;20026;-38
2023/12/23 06:44:36;;;;;;;6.38;2.50;;;;;;;20.18;67.14;100739.56;5000561;28;20030;-38
2023/12/23 06:47:02;;;;;;;7.55;2.40;;;;;;;20.21;67.05;100733.47;4999933;28;20594;-38
2023/12/23 06:49:28;;;;;;;7.63;2.30;;;;;;;20.22;66.68;100729.63;4999965;28;20802;-38
2023/12/23 06:51:54;;;;;;;6.80;2.38;;;;;;;20.23;66.87;100738.69;5002608;28;20382;-38
2023/12/23 06:54:19;;;;;;;7.88;2.38;;;;;;;20.22;66.58;100748.88;5001399;28;20372;-38
2023/12/23 06:56:44;;;;;;;6.20;2.58;;;;;;;20.20;66.58;100724.38;4999819;28;20037;-38
2023/12/23 06:59:12;;;;;;;6.88;2.63;;;;;;;20.19;66.40;100741.19;5000329;28;20307;-38
2023/12/23 07:01:41;;;;;;;6.55;2.28;;;;;;;20.17;66.32;100746.16;4998734;28;20124;-38
2023/12/23 07:04:07;;;;;;;8.20;2.67;;;;;;;20.15;66.48;100737.41;4999912;28;20077;-39
2023/12/23 07:06:33;;;;;;;6.88;2.90;;;;;;;20.13;66.47;100729.44;5001719;28;20383;-38
2023/12/23 07:08:58;;;;;;;8.70;2.67;;;;;;;20.11;66.74;100752.84;5000182;28;20045;-38
2023/12/23 07:11:24;;;;;;;7.93;2.53;;;;;;;20.11;66.60;100747.34;5001449;28;20032;-37
2023/12/23 07:13:51;;;;;;;8.43;2.40;;;;;;;20.08;66.60;100746.00;5001904;28;20041;-39
2023/12/23 07:16:16;;;;;;;7.05;2.72;;;;;;;20.07;66.45;100760.88;4999134;28;20032;-38
2023/12/23 07:18:42;;;;;;;5.65;2.55;;;;;;;20.03;66.41;100743.31;4998451;28;20494;-38
2023/12/23 07:21:07;;;;;;;6.10;2.38;;;;;;;20.00;66.61;100736.47;4999953;28;20045;-39
2023/12/23 07:23:32;;;;;;;6.53;2.55;;;;;;;19.98;66.80;100744.19;4997950;28;20029;-38
2023/12/23 07:25:58;;;;;;;8.02;2.75;;;;;;;19.96;66.65;100760.19;4998858;28;20063;-39
2023/12/23 07:28:23;;;;;;;7.93;2.70;;;;;;;19.96;66.81;100762.09;5000639;28;20479;-38
2023/12/23 07:30:49;;;;;;;6.88;2.75;;;;;;;19.96;66.94;100737.34;4998215;28;20375;-37
2023/12/23 07:33:14;;;;;;;8.13;2.42;;;;;;;19.96;66.56;100753.84;5010953;28;20057;-37
2023/12/23 07:35:39;;;;;;;5.80;2.58;;;;;;;19.96;66.70;100754.69;5010938;28;20568;-37
2023/12/23 07:38:05;;;;;;;6.43;2.90;;;;;;;19.96;66.66;100757.44;5004014;28;20033;-37
2023/12/23 07:40:31;;;;;;;7.10;2.38;;;;;;;19.97;66.51;100745.28;4990343;28;20480;-37
2023/12/23 07:42:56;;;;;;;6.05;2.50;;;;;;;19.97;66.68;100753.53;5014534;28;20033;-38
2023/12/23 07:45:23;;;;;;;8.55;2.70;;;;;;;19.99;66.73;100767.03;5002047;28;20033;-37
2023/12/23 07:47:49;;;;;;;8.93;2.75;;;;;;;19.99;66.89;100748.59;4993621;28;20112;-38
2023/12/23 07:50:14;;;;;;;7.72;2.72;;;;;;;20.02;66.61;100758.19;5000826;28;20054;-37
2023/12/23 07:52:40;;;;;;;11.40;2.53;;;;;;;20.04;66.29;100762.28;5001452;28;20021;-37
2023/12/23 07:55:07;;;;;;;9.68;2.80;;;;;;;20.07;66.67;100762.81;5001805;28;20089;-38
2023/12/23 07:57:32;;;;;;;8.00;2.70;;;;;;;20.07;66.62;100766.38;4998365;28;20497;-38
2023/12/23 07:59:57;;;;;;;10.32;2.50;;;;;;;20.07;66.70;100762.81;4984858;28;20033;-37
2023/12/23 08:02:23;;;;;;;5.80;2.63;;;;;;;20.07;66.52;100765.56;5000890;28;20030;-38
2023/12/23 08:04:48;;;;;;;7.82;2.72;;;;;;;20.06;66.36;100728.16;5006377;28;20030;-38
2023/12/23 08:07:14;;;;;;;8.27;2.70;;;;;;;20.03;66.41;100754.31;5001012;28;20033;-37
2023/12/23 08:09:39;;;;;;;6.45;2.50;;;;;;;19.99;66.37;100754.09;5001505;28;20491;-37
2023/12/23 08:12:06;;;;;;;7.30;2.60;;;;;;;19.97;66.38;100756.31;4999638;28;20033;-38
2023/12/23 08:14:31;;;;;;;10.48;2.85;;;;;;;19.94;66.23;100784.41;4998865;28;20048;-39
2023/12/23 08:16:57;;;;;;;6.88;2.42;;;;;;;19.94;65.89;100767.91;5005600;28;20354;-37
2023/12/23 08:19:22;;;;;;;7.07;2.50;;;;;;;19.96;66.68;100773.09;4986445;28;20029;-37
2023/12/23 08:21:47;;;;;;;7.38;2.28;;;;;;;19.96;66.39;100782.19;4999727;28;20384;-37
2023/12/23 08:24:13;;;;;;;8.32;2.70;;;;;;;19.97;66.74;100775.56;5015571;28;20075;-38
2023/12/23 08:26:39;;;;;;;5.85;2.22;;;;;;;19.98;66.45;100766.19;5002461;28;20037;-38
2023/12/23 08:29:04;;;;;;;13.02;3.33;;;;;;;19.99;66.44;100770.59;4980826;28;20044;-38
2023/12/23 08:31:29;;;;;;;6.93;2.47;;;;;;;20.01;66.63;100776.63;5000371;28;20467;-38
2023/12/23 08:33:55;;;;;;;6.43;2.50;;;;;;;20.01;66.57;100773.03;5001402;28;20113;-38
2023/12/23 08:36:20;;;;;;;6.07;2.20;;;;;;;20.03;66.75;100776.31;5002499;28;20346;-39
2023/12/23 08:38:46;;;;;;;6.18;2.88;;;;;;;20.05;66.45;100785.13;5000017;28;20426;-38
2023/12/23 08:41:11;;;;;;;7.25;2.63;;;;;;;20.03;66.23;100779.88;5012233;28;20021;-36
2023/12/23 08:43:36;;;;;;;7.95;2.60;;;;;;;20.04;66.43;100784.28;4980667;28;20026;-38
2023/12/23 08:46:02;;;;;;;7.68;2.65;;;;;;;20.04;66.50;100783.47;4992489;28;20078;-38
2023/12/23 08:48:28;;;;;;;6.22;2.20;;;;;;;20.00;66.55;100797.00;5002476;28;20037;-38
2023/12/23 08:50:53;;;;;;;8.98;2.60;;;;;;;20.00;66.05;100785.16;5002621;28;20134;-38
2023/12/23 08:53:19;;;;;;;7.05;2.55;;;;;;;19.97;66.32;100803.06;5001158;28;20022;-38
2023/12/23 08:55:44;;;;;;;6.82;2.25;;;;;;;19.95;66.82;100804.47;5003711;28;20048;-38
2023/12/23 08:58:13;;;;;;;6.93;2.58;;;;;;;19.93;66.63;100802.00;5000791;28;20041;-38
2023/12/23 09:00:39;;;;;;;8.70;2.42;;;;;;;19.93;66.33;100802.00;4985209;28;20017;-38
2023/12/23 09:03:04;;;;;;;5.80;2.20;;;;;;;19.93;66.78;100817.72;4991268;28;20489;-38
2023/12/23 09:05:30;;;;;;;8.25;2.40;;;;;;;19.92;66.70;100800.38;5002616;28;20109;-38
2023/12/23 09:07:55;;;;;;;8.30;2.50;;;;;;;19.93;66.71;100801.22;5007400;28;20036;-40
2023/12/23 09:10:21;;;;;;;8.18;2.33;;;;;;;19.94;66.46;100806.41;5002771;28;20105;-38
2023/12/23 09:12:46;;;;;;;7.10;2.53;;;;;;;19.95;66.71;100810.81;4983877;28;20171;-39
2023/12/23 09:15:12;;;;;;;9.50;2.78;;;;;;;19.95;66.71;100813.56;5004651;28;20051;-38
2023/12/23 09:17:37;;;;;;;9.30;2.63;;;;;;;19.94;66.37;100795.41;5004541;28;20375;-38
2023/12/23 09:20:06;;;;;;;7.30;2.22;;;;;;;19.93;66.52;100826.78;5002687;28;20053;-38
2023/12/23 09:22:31;;;;;;;7.97;2.47;;;;;;;19.93;66.45;100810.25;5002937;28;20025;-37
2023/12/23 09:24:56;;;;;;;6.25;2.20;;;;;;;19.93;66.44;100823.22;5001464;28;20379;-37
2023/12/23 09:27:22;;;;;;;8.55;2.38;;;;;;;19.94;66.63;100831.16;4985841;28;20049;-38
2023/12/23 09:29:47;;;;;;;7.03;2.65;;;;;;;19.96;66.91;100820.69;5000839;28;20509;-38
2023/12/23 09:32:13;;;;;;;5.90;2.45;;;;;;;19.97;66.65;100832.50;5004784;28;20061;-36
2023/12/23 09:34:38;;;;;;;6.20;2.40;;;;;;;19.97;66.51;100822.31;5003999;28;20068;-38
2023/12/23 09:37:04;;;;;;;5.35;2.40;;;;;;;19.97;66.52;100816.00;5004752;28;20107;-39
2023/12/23 09:39:29;;;;;;;7.07;2.33;;;;;;;19.96;66.60;100817.13;5002950;28;20386;-38
2023/12/23 09:41:55;;;;;;;7.22;2.30;;;;;;;19.96;66.48;100826.19;4999250;28;20036;-38
2023/12/23 09:44:21;;;;;;;9.40;2.92;;;;;;;19.95;66.79;100840.22;5005419;28;21137;-37
2023/12/23 09:46:46;;;;;;;6.75;2.20;;;;;;;19.93;66.71;100848.78;5006400;28;20029;-37
2023/12/23 09:49:12;;;;;;;7.78;2.60;;;;;;;19.90;66.61;100841.09;5004943;28;20026;-36
2023/12/23 09:51:37;;;;;;;7.35;2.30;;;;;;;19.90;66.82;100845.78;5012426;28;20541;-37
2023/12/23 09:54:05;;;;;;;6.82;2.63;;;;;;;19.88;66.82;100843.31;5001973;28;20120;-37
2023/12/23 09:56:31;;;;;;;8.63;2.53;;;;;;;19.87;66.92;100848.00;4999377;28;20063;-38
2023/12/23 09:58:57;;;;;;;6.80;2.40;;;;;;;19.87;66.86;100841.69;5001091;28;20033;-38
2023/12/23 10:01:22;;;;;;;10.98;2.97;;;;;;;19.84;66.91;100845.84;5000989;28;20429;-38
2023/12/23 10:03:49;;;;;;;5.20;2.38;;;;;;;19.84;67.04;100843.09;5001264;28;20037;-37
2023/12/23 10:06:15;;;;;;;6.82;2.40;;;;;;;19.83;67.05;100837.84;5008612;28;20421;-37
2023/12/23 10:08:44;;;;;;;6.43;2.30;;;;;;;19.81;66.84;100837.31;5010051;28;20022;-38
2023/12/23 10:11:09;;;;;;;7.28;2.30;;;;;;;19.81;66.95;100831.81;5003732;28;20034;-36
2023/12/23 10:13:35;;;;;;;7.15;2.63;;;;;;;19.80;67.18;100833.72;5001352;28;20053;-38
2023/12/23 10:16:01;;;;;;;6.78;2.40;;;;;;;19.80;67.12;100850.22;5004350;28;20553;-39
2023/12/23 10:18:27;;;;;;;5.43;2.28;;;;;;;19.79;66.94;100840.34;5003321;28;20105;-38
2023/12/23 10:20:52;;;;;;;8.02;2.60;;;;;;;19.79;67.01;100840.34;4999199;28;20022;-38
2023/12/23 10:23:17;;;;;;;7.50;2.42;;;;;;;19.79;67.27;100850.53;4994549;28;20040;-39
2023/12/23 10:25:44;;;;;;;6.00;2.30;;;;;;;19.78;66.94;100838.72;4987903;28;20029;-38
2023/12/23 10:28:10;;;;;;;5.53;2.35;;;;;;;19.77;67.20;100867.31;5002621;28;20355;-37
2023/12/23 10:30:39;;;;;;;7.05;2.38;;;;;;;19.76;67.12;100846.41;5004817;28;20029;-38
2023/12/23 10:33:06;;;;;;;5.70;2.45;;;;;;;19.76;67.31;100838.16;5004201;28;20021;-37
2023/12/23 10:35:44;;;;;;;5.10;1.95;;;;;;;19.75;66.99;100854.97;5001233;28;20386;-38
2023/12/23 10:38:17;;;;;;;6.97;2.30;;;;;;;19.75;67.28;100850.28;5003717;28;20239;-38
2023/12/23 10:40:48;;;;;;;5.78;2.25;;;;;;;19.77;67.05;100850.00;5004168;28;20033;-38
2023/12/23 10:43:15;;;;;;;7.35;2.38;;;;;;;19.79;67.22;100859.59;5003856;28;20479;-37
2023/12/23 10:45:41;;;;;;;5.05;2.08;;;;;;;19.82;67.34;100836.22;5005406;28;20106;-37
2023/12/23 10:48:08;;;;;;;7.30;2.38;;;;;;;19.86;67.14;100826.28;4989031;28;20037;-38
2023/12/23 10:50:35;;;;;;;5.05;2.25;;;;;;;19.90;67.28;100834.78;4987150;28;20395;-36
2023/12/23 10:53:00;;;;;;;6.35;2.20;;;;;;;19.93;66.95;100840.53;5003305;28;20057;-37
2023/12/23 10:55:27;;;;;;;34.53;3.25;;;;;;;19.98;67.47;100839.66;4982708;28;20076;-35
2023/12/23 10:57:55;;;;;;;11.82;2.40;;;;;;;20.03;67.19;100832.16;5001547;28;20061;-36
2023/12/23 11:00:20;;;;;;;11.57;2.50;;;;;;;20.11;67.67;100836.22;4995971;28;20118;-35
2023/12/23 11:02:49;;;;;;;8.73;2.53;;;;;;;20.18;67.48;100830.34;5000811;28;20022;-37
2023/12/23 11:05:14;;;;;;;8.85;1.88;;;;;;;20.26;67.64;100842.69;5001709;28;20600;-39
2023/12/23 11:07:45;;;;;;;15.80;2.47;;;;;;;20.33;67.43;100854.13;5001017;28;20021;-37
2023/12/23 11:10:13;;;;;;;6.03;2.20;;;;;;;20.40;67.28;100862.06;4987076;28;20073;-40
2023/12/23 11:12:39;;;;;;;6.05;1.90;;;;;;;20.44;66.83;100863.94;5003902;28;20444;-37
2023/12/23 11:15:05;;;;;;;7.57;2.08;;;;;;;20.48;67.31;100855.91;5001279;28;20470;-39
2023/12/23 11:17:31;;;;;;;10.73;2.00;;;;;;;20.51;67.16;100858.06;4983311;28;20083;-37